메인 페이지
METAR-TAF:

METAR-TAF

공항 :

은자메나, 차드

위도: 12-08N, 경도: 015-02E, 고도: 295m

현재 날씨관측

예보는 1 시간 7분 전, 15:00시(UTC)에 발표되었습니다.
7kt북서풍과 북북동풍을 오가는
온도 31°C
습도 12%
기압 1012 hPa
시정: 4500m
황사

METAR: FTTJ 181500Z 35007KT 320V030 4500 DU NSC 31/M02 Q1012 NOSIG

시각: 17:07 (16:07 UTC)

예보

예보는 11 시간 7분 전, 05:00시(UTC)에 발표되었습니다.
예보 대상 시간: 18일 06시부터 19일 12시까지 (UTC)
10kt
시정: 1500m
황사
전환 중
18일 09시부터 18일 11시까지 (UTC)
시정: 4500m

TAF: FTTJ 180500Z 1806/1912 01010KT 1500 DU NSC BECMG 1809/1811 4500

4,000개 이상의 공항 관측 자료 및 예보 (METAR 및 TAF 보고).

지도상에서 검색 가능한 기상관측소가 노란 점과 빨간 점으로 표시되어 있습니다.

기상관측소 명을 보려면 표시 위로 마우스를 이동하세요.

날씨 관측과 예보를 보려면 클릭하세요.

지도 변경 : 확대하려면 엑스 표시가 있는 녹색 버튼, 축소하려면 빼기 표시가 있는 녹색 버튼, 다음 페이지의 지도를 보려면 녹색 화살표를 클릭하세요.


METAR-TAF: